Time;durP1;ratioP1;P1;durP2;ratioP2;P2;SDS_P1;SDS_P2;PMS_P1;PMS_P2;Temp;Humidity;BMP_temperature;BMP_pressure;BME280_temperature;BME280_humidity;BME280_pressure;Samples;Min_cycle;Max_cycle;Signal;HPM_P1;HPM_P2
2022/10/11 00:00:11;;;;;;;6.20;3.08;;;;;;;;;;5128316;27;19919;-74
2022/10/11 00:02:41;;;;;;;4.50;1.25;;;;;;;;;;5128444;27;20047;-75
2022/10/11 00:05:11;;;;;;;;;;;;;;;;;;5129290;27;20039;-77
2022/10/11 00:07:41;;;;;;;6.20;2.67;;;;;;;;;;5128390;27;19946;-77
2022/10/11 00:10:11;;;;;;;2.25;1.15;;;;;;;;;;5127969;27;20067;-75
2022/10/11 00:12:41;;;;;;;;;;;;;;;;;;5127984;27;20062;-75
2022/10/11 00:15:17;;;;;;;6.15;1.02;;;;;;;;;;5127516;27;19985;-78
2022/10/11 00:17:48;;;;;;;4.15;1.45;;;;;;;;;;5128506;27;20043;-74
2022/10/11 00:20:18;;;;;;;3.30;0.88;;;;;;;;;;5128221;27;20058;-77
2022/10/11 00:22:48;;;;;;;3.30;0.98;;;;;;;;;;5128375;27;20043;-75
2022/10/11 00:25:18;;;;;;;3.22;1.02;;;;;;;;;;5128375;27;20058;-73
2022/10/11 00:27:48;;;;;;;5.10;3.42;;;;;;;;;;5128024;27;20047;-76
2022/10/11 00:30:18;;;;;;;2.22;0.90;;;;;;;;;;5128140;27;20128;-77
2022/10/11 00:32:49;;;;;;;4.85;0.98;;;;;;;;;;5127791;27;20043;-78
2022/10/11 00:35:19;;;;;;;1.25;0.85;;;;;;;;;;5127801;27;20051;-78
2022/10/11 00:37:48;;;;;;;;;;;;;;;;;;5127996;27;20051;-76
2022/10/11 00:40:19;;;;;;;3.08;1.38;;;;;;;;;;5128075;27;19930;-78
2022/10/11 00:42:49;;;;;;;30.27;16.92;;;;;;;;;;5127429;27;20065;-74
2022/10/11 00:45:31;;;;;;;;;;;;;;;;;;5128346;27;20050;-74
2022/10/11 00:48:11;;;;;;;2.47;1.55;;;;;;;;;;5128093;27;19919;-75
2022/10/11 00:50:42;;;;;;;4.90;1.95;;;;;;;;;;5127991;27;20390;-77
2022/10/11 00:53:12;;;;;;;5.18;1.33;;;;;;;;;;5127451;27;20507;-75
2022/10/11 00:55:49;;;;;;;5.72;1.70;;;;;;;;;;5127476;27;20047;-76
2022/10/11 00:58:21;;;;;;;5.28;1.83;;;;;;;;;;5127528;27;20069;-75
2022/10/11 01:00:53;;;;;;;3.70;1.40;;;;;;;;;;5126885;27;20050;-77
2022/10/11 01:03:26;;;;;;;6.90;1.80;;;;;;;;;;5127342;27;20043;-75
2022/10/11 01:05:56;;;;;;;4.97;1.77;;;;;;;;;;5127508;27;20043;-77
2022/10/11 01:08:26;;;;;;;;;;;;;;;;;;5127770;27;20051;-74
2022/10/11 01:10:56;;;;;;;2.28;1.55;;;;;;;;;;5126999;27;19928;-74
2022/10/11 01:13:47;;;;;;;8.20;1.80;;;;;;;;;;5126969;27;20047;-74
2022/10/11 01:16:29;;;;;;;5.47;1.85;;;;;;;;;;5127199;27;20043;-76
2022/10/11 01:19:04;;;;;;;;;;;;;;;;;;5127119;27;20047;-74
2022/10/11 01:21:55;;;;;;;5.03;1.40;;;;;;;;;;5125723;27;19953;-76
2022/10/11 01:25:04;;;;;;;7.03;1.60;;;;;;;;;;5126293;27;20047;-76
2022/10/11 01:27:54;;;;;;;3.92;1.92;;;;;;;;;;5126087;28;20043;-77
2022/10/11 01:30:28;;;;;;;7.07;1.42;;;;;;;;;;5126896;28;20043;-76
2022/10/11 01:33:23;;;;;;;8.88;2.85;;;;;;;;;;5126370;27;20059;-77
2022/10/11 01:36:02;;;;;;;8.43;1.90;;;;;;;;;;5126780;28;20062;-77
2022/10/11 01:38:42;;;;;;;5.97;2.15;;;;;;;;;;5126888;28;20086;-75
2022/10/11 01:41:23;;;;;;;5.30;1.50;;;;;;;;;;5126983;28;20405;-74
2022/10/11 01:43:58;;;;;;;4.68;1.83;;;;;;;;;;5126350;28;20051;-74
2022/10/11 01:46:29;;;;;;;4.28;1.70;;;;;;;;;;5126900;28;20503;-73
2022/10/11 01:49:01;;;;;;;9.82;5.13;;;;;;;;;;5127163;28;20047;-74
2022/10/11 01:51:42;;;;;;;15.18;4.85;;;;;;;;;;5127247;28;20397;-76
2022/10/11 01:54:27;;;;;;;2.55;1.45;;;;;;;;;;5127371;28;20039;-75
2022/10/11 01:57:32;;;;;;;4.82;1.88;;;;;;;;;;5126503;28;20043;-75
2022/10/11 02:00:18;;;;;;;8.68;1.80;;;;;;;;;;5126734;28;20043;-73
2022/10/11 02:03:12;;;;;;;7.90;2.50;;;;;;;;;;5126770;28;20043;-74
2022/10/11 02:06:10;;;;;;;4.38;1.70;;;;;;;;;;5126944;28;20393;-76
2022/10/11 02:08:48;;;;;;;4.55;1.92;;;;;;;;;;5127126;28;20592;-74
2022/10/11 02:11:33;;;;;;;1.92;1.10;;;;;;;;;;5126762;28;20054;-75
2022/10/11 02:14:24;;;;;;;4.70;1.30;;;;;;;;;;5127134;28;20035;-76
2022/10/11 02:17:06;;;;;;;1.75;1.00;;;;;;;;;;5127003;28;20047;-77
2022/10/11 02:19:38;;;;;;;;;;;;;;;;;;5127452;28;20523;-74
2022/10/11 02:22:18;;;;;;;2.63;0.80;;;;;;;;;;5126520;28;20981;-74
2022/10/11 02:24:52;;;;;;;1.73;1.00;;;;;;;;;;5126680;28;20047;-74
2022/10/11 02:27:25;;;;;;;1.95;1.10;;;;;;;;;;5126129;28;20047;-74
2022/10/11 02:29:58;;;;;;;1.90;1.10;;;;;;;;;;5126397;27;20074;-74
2022/10/11 02:32:31;;;;;;;1.90;0.77;;;;;;;;;;5126516;28;20394;-75
2022/10/11 02:35:02;;;;;;;3.90;0.70;;;;;;;;;;5126421;27;20498;-74
2022/10/11 02:37:44;;;;;;;1.23;0.70;;;;;;;;;;5129966;27;20077;-75
2022/10/11 02:40:30;;;;;;;1.90;0.70;;;;;;;;;;5130554;27;20047;-74
2022/10/11 02:43:16;;;;;;;1.92;0.60;;;;;;;;;;5130568;27;20047;-74
2022/10/11 02:46:00;;;;;;;1.73;0.70;;;;;;;;;;5130223;27;20043;-74
2022/10/11 02:48:34;;;;;;;2.08;0.90;;;;;;;;;;5130529;27;20051;-73
2022/10/11 02:51:04;;;;;;;5.55;1.08;;;;;;;;;;5130409;27;20683;-76
2022/10/11 02:53:34;;;;;;;4.03;1.33;;;;;;;;;;5129588;27;20046;-74
2022/10/11 02:56:03;;;;;;;;;;;;;;;;;;5130370;27;20047;-76
2022/10/11 02:58:34;;;;;;;4.03;1.25;;;;;;;;;;5130261;27;19923;-73
2022/10/11 03:01:04;;;;;;;1.27;1.10;;;;;;;;;;5129809;27;20051;-75
2022/10/11 03:03:34;;;;;;;2.70;1.08;;;;;;;;;;5130038;27;20055;-75
2022/10/11 03:06:03;;;;;;;;;;;;;;;;;;5130537;27;20397;-73
2022/10/11 03:08:33;;;;;;;0.55;0.50;;;;;;;;;;5127963;27;19924;-74
2022/10/11 03:11:03;;;;;;;2.17;0.50;;;;;;;;;;5129305;27;20070;-74
2022/10/11 03:13:33;;;;;;;;;;;;;;;;;;5129776;27;20055;-73
2022/10/11 03:16:02;;;;;;;0.22;0.22;;;;;;;;;;5130164;27;19926;-74
2022/10/11 03:18:32;;;;;;;0.25;0.25;;;;;;;;;;5129954;27;20039;-74
2022/10/11 03:21:01;;;;;;;;;;;;;;;;;;5130235;27;20400;-73
2022/10/11 03:23:31;;;;;;;0.20;0.20;;;;;;;;;;5129081;27;19930;-72
2022/10/11 03:26:01;;;;;;;0.68;0.30;;;;;;;;;;5128684;27;20532;-75
2022/10/11 03:28:31;;;;;;;0.00;0.00;;;;;;;;;;5129234;27;20065;-76
2022/10/11 03:31:03;;;;;;;0.10;0.10;;;;;;;;;;5129169;27;20397;-75
2022/10/11 03:33:33;;;;;;;0.00;0.00;;;;;;;;;;5129379;27;20035;-73
2022/10/11 03:36:04;;;;;;;1.45;0.15;;;;;;;;;;5128905;27;20051;-78
2022/10/11 03:38:35;;;;;;;0.10;0.10;;;;;;;;;;5127740;27;20054;-74
2022/10/11 03:41:07;;;;;;;;;;;;;;;;;;5129700;27;20046;-74
2022/10/11 03:43:38;;;;;;;0.50;0.30;;;;;;;;;;5129313;27;19930;-73
2022/10/11 03:46:08;;;;;;;0.20;0.20;;;;;;;;;;5128672;27;20047;-72
2022/10/11 03:48:38;;;;;;;0.75;0.40;;;;;;;;;;5128482;27;20510;-74
2022/10/11 03:51:08;;;;;;;;;;;;;;;;;;5129153;27;20042;-73
2022/10/11 03:53:38;;;;;;;0.10;0.10;;;;;;;;;;5128477;27;19923;-75
2022/10/11 03:56:08;;;;;;;1.23;0.20;;;;;;;;;;5128193;27;20039;-72
2022/10/11 03:58:40;;;;;;;0.20;0.20;;;;;;;;;;5128759;27;20047;-75
2022/10/11 04:01:10;;;;;;;0.22;0.22;;;;;;;;;;5128772;27;20050;-75
2022/10/11 04:03:40;;;;;;;0.10;0.00;;;;;;;;;;5128332;27;20050;-71
2022/10/11 04:06:10;;;;;;;0.22;0.22;;;;;;;;;;5127163;27;20046;-73
2022/10/11 04:08:39;;;;;;;;;;;;;;;;;;5129071;27;20058;-74
2022/10/11 04:11:09;;;;;;;0.13;0.10;;;;;;;;;;5127072;27;19930;-74
2022/10/11 04:13:38;;;;;;;;;;;;;;;;;;5128851;27;20508;-72
2022/10/11 04:16:07;;;;;;;0.00;0.00;;;;;;;;;;5128314;27;20439;-76
2022/10/11 04:18:37;;;;;;;;;;;;;;;;;;5128603;27;20043;-76
2022/10/11 04:21:06;;;;;;;0.95;0.10;;;;;;;;;;5128054;27;19992;-74
2022/10/11 04:23:36;;;;;;;;;;;;;;;;;;5128473;27;20046;-74
2022/10/11 04:26:07;;;;;;;0.00;0.00;;;;;;;;;;5128287;27;19919;-75
2022/10/11 04:28:38;;;;;;;0.10;0.10;;;;;;;;;;5126855;27;20051;-76
2022/10/11 04:31:08;;;;;;;0.10;0.10;;;;;;;;;;5128790;27;20047;-75
2022/10/11 04:33:37;;;;;;;;;;;;;;;;;;5128620;27;20050;-75
2022/10/11 04:36:07;;;;;;;0.10;0.10;;;;;;;;;;5127755;27;19919;-73
2022/10/11 04:38:37;;;;;;;0.10;0.10;;;;;;;;;;5128172;27;20425;-73
2022/10/11 04:41:07;;;;;;;;;;;;;;;;;;5128523;27;20502;-73
2022/10/11 04:43:37;;;;;;;0.20;0.20;;;;;;;;;;5127560;27;19923;-74
2022/10/11 04:46:08;;;;;;;0.20;0.20;;;;;;;;;;5127311;27;20042;-73
2022/10/11 04:48:39;;;;;;;0.10;0.10;;;;;;;;;;5127883;27;20525;-75
2022/10/11 04:51:08;;;;;;;;;;;;;;;;;;5127899;27;20062;-73
2022/10/11 04:53:38;;;;;;;0.47;0.05;;;;;;;;;;5127467;27;19923;-75
2022/10/11 04:56:13;;;;;;;0.25;0.10;;;;;;;;;;5127818;27;20039;-74
2022/10/11 04:58:46;;;;;;;0.82;0.20;;;;;;;;;;5126641;27;20497;-73
2022/10/11 05:01:16;;;;;;;0.10;0.10;;;;;;;;;;5127762;27;20402;-73
2022/10/11 05:03:46;;;;;;;;;;;;;;;;;;5127841;27;20057;-73
2022/10/11 05:06:16;;;;;;;0.20;0.20;;;;;;;;;;5126324;27;19923;-74
2022/10/11 05:08:46;;;;;;;0.00;0.00;;;;;;;;;;5126902;27;20421;-75
2022/10/11 05:11:16;;;;;;;0.25;0.20;;;;;;;;;;5126484;27;20047;-76
2022/10/11 05:13:47;;;;;;;1.10;0.20;;;;;;;;;;5127322;27;20043;-72
2022/10/11 05:16:17;;;;;;;0.20;0.20;;;;;;;;;;5126954;27;20047;-73
2022/10/11 05:18:47;;;;;;;0.30;0.20;;;;;;;;;;5127218;27;20058;-74
2022/10/11 05:21:16;;;;;;;;;;;;;;;;;;5127871;27;20043;-75
2022/10/11 05:23:47;;;;;;;0.00;0.00;;;;;;;;;;5126083;27;19924;-74
2022/10/11 05:26:19;;;;;;;0.20;0.20;;;;;;;;;;5127291;28;20055;-77
2022/10/11 05:28:49;;;;;;;0.25;0.25;;;;;;;;;;5125803;28;20054;-72
2022/10/11 05:31:20;;;;;;;1.25;0.20;;;;;;;;;;5126946;28;20051;-74
2022/10/11 05:33:49;;;;;;;0.25;0.20;;;;;;;;;;5125468;27;20044;-75
2022/10/11 05:36:19;;;;;;;0.75;0.20;;;;;;;;;;5125855;28;20047;-75
2022/10/11 05:38:49;;;;;;;;;;;;;;;;;;5126928;28;20050;-74
2022/10/11 05:41:18;;;;;;;0.20;0.20;;;;;;;;;;5126919;28;19923;-73
2022/10/11 05:43:47;;;;;;;;;;;;;;;;;;5127969;27;20062;-74
2022/10/11 05:46:17;;;;;;;2.20;0.20;;;;;;;;;;5126755;28;20321;-74
2022/10/11 05:48:46;;;;;;;;;;;;;;;;;;5127643;28;20039;-72
2022/10/11 05:51:17;;;;;;;0.40;0.10;;;;;;;;;;5127149;28;19923;-74
2022/10/11 05:53:46;;;;;;;;;;;;;;;;;;5127275;28;20399;-77
2022/10/11 05:56:22;;;;;;;0.30;0.15;;;;;;;;;;5127204;28;19923;-74
2022/10/11 05:58:52;;;;;;;0.82;0.20;;;;;;;;;;5126582;28;20161;-75
2022/10/11 06:01:29;;;;;;;0.25;0.25;;;;;;;;;;5127022;28;20039;-73
2022/10/11 06:03:58;;;;;;;1.42;0.30;;;;;;;;;;5126629;28;20117;-72
2022/10/11 06:06:30;;;;;;;0.20;0.20;;;;;;;;;;5126955;28;20042;-73
2022/10/11 06:08:59;;;;;;;2.53;0.28;;;;;;;;;;5126516;28;20047;-76
2022/10/11 06:11:29;;;;;;;1.02;0.20;;;;;;;;;;5129679;27;20035;-74
2022/10/11 06:13:59;;;;;;;0.22;0.22;;;;;;;;;;5130665;27;20493;-76
2022/10/11 06:16:29;;;;;;;0.13;0.13;;;;;;;;;;5130447;27;20062;-74
2022/10/11 06:18:59;;;;;;;3.63;0.20;;;;;;;;;;5130521;27;20417;-72
2022/10/11 06:21:29;;;;;;;0.10;0.10;;;;;;;;;;5130386;27;20050;-73
2022/10/11 06:24:00;;;;;;;0.20;0.20;;;;;;;;;;5129459;27;20042;-75
2022/10/11 06:26:31;;;;;;;0.30;0.30;;;;;;;;;;5130520;27;20133;-72
2022/10/11 06:29:01;;;;;;;0.10;0.10;;;;;;;;;;5130567;27;20048;-74
2022/10/11 06:31:31;;;;;;;0.22;0.22;;;;;;;;;;5130470;27;20035;-72
2022/10/11 06:34:00;;;;;;;0.17;0.05;;;;;;;;;;5130110;27;20046;-73
2022/10/11 06:36:30;;;;;;;0.82;0.45;;;;;;;;;;5130000;27;20054;-72
2022/10/11 06:39:00;;;;;;;0.63;0.30;;;;;;;;;;5129990;27;20497;-73
2022/10/11 06:41:30;;;;;;;2.80;1.48;;;;;;;;;;5130259;27;20051;-75
2022/10/11 06:44:00;;;;;;;1.92;0.80;;;;;;;;;;5129970;27;20051;-74
2022/10/11 06:46:32;;;;;;;1.98;1.10;;;;;;;;;;5130178;27;20046;-72
2022/10/11 06:49:03;;;;;;;1.10;0.82;;;;;;;;;;5130326;27;20420;-74
2022/10/11 06:51:34;;;;;;;1.40;0.68;;;;;;;;;;5130035;27;20089;-74
2022/10/11 06:54:04;;;;;;;1.05;0.73;;;;;;;;;;5130041;27;20401;-76
2022/10/11 06:56:34;;;;;;;1.45;0.95;;;;;;;;;;5130168;27;20150;-72
2022/10/11 06:59:04;;;;;;;2.05;0.98;;;;;;;;;;5129991;27;20081;-75
2022/10/11 07:01:34;;;;;;;4.25;1.20;;;;;;;;;;5130109;27;20058;-72
2022/10/11 07:04:04;;;;;;;0.20;0.20;;;;;;;;;;5129690;27;20047;-75
2022/10/11 07:06:38;;;;;;;1.08;0.40;;;;;;;;;;5129513;27;20058;-74
2022/10/11 07:09:08;;;;;;;0.52;0.45;;;;;;;;;;5129414;27;20055;-71
2022/10/11 07:11:39;;;;;;;0.60;0.60;;;;;;;;;;5129368;27;20051;-72
2022/10/11 07:14:10;;;;;;;0.43;0.43;;;;;;;;;;5128623;27;20486;-73
2022/10/11 07:16:39;;;;;;;0.60;0.60;;;;;;;;;;5129797;27;20140;-73
2022/10/11 07:19:10;;;;;;;0.40;0.32;;;;;;;;;;5129499;27;20051;-74
2022/10/11 07:21:39;;;;;;;0.40;0.30;;;;;;;;;;5129109;27;20043;-71
2022/10/11 07:24:09;;;;;;;0.55;0.40;;;;;;;;;;5129081;27;20054;-72
2022/10/11 07:26:39;;;;;;;1.52;0.70;;;;;;;;;;5128705;27;20057;-74
2022/10/11 07:29:10;;;;;;;0.70;0.40;;;;;;;;;;5129530;27;20047;-73
2022/10/11 07:31:42;;;;;;;0.65;0.60;;;;;;;;;;5128252;27;20533;-74
2022/10/11 07:34:12;;;;;;;0.93;0.55;;;;;;;;;;5129228;27;20050;-75
2022/10/11 07:36:43;;;;;;;0.40;0.40;;;;;;;;;;5129317;27;20035;-72
2022/10/11 07:39:13;;;;;;;0.40;0.40;;;;;;;;;;5127729;27;20047;-75
2022/10/11 07:41:43;;;;;;;0.75;0.75;;;;;;;;;;5129305;27;20047;-72
2022/10/11 07:44:14;;;;;;;1.10;0.70;;;;;;;;;;5129330;27;20773;-74
2022/10/11 07:46:43;;;;;;;0.80;0.70;;;;;;;;;;5128622;27;20043;-73
2022/10/11 07:49:14;;;;;;;1.10;0.95;;;;;;;;;;5128936;27;20059;-72
2022/10/11 07:51:43;;;;;;;;;;;;;;;;;;5129456;27;20050;-73
2022/10/11 07:54:13;;;;;;;0.95;0.75;;;;;;;;;;5128492;27;19923;-74
2022/10/11 07:56:43;;;;;;;3.33;0.88;;;;;;;;;;5128774;27;20705;-74
2022/10/11 07:59:12;;;;;;;1.10;1.00;;;;;;;;;;5128623;27;20039;-73
2022/10/11 08:01:42;;;;;;;2.63;1.20;;;;;;;;;;5128499;27;20043;-73
2022/10/11 08:04:12;;;;;;;1.77;1.42;;;;;;;;;;5129225;27;20050;-72
2022/10/11 08:06:41;;;;;;;;;;;;;;;;;;5129678;27;20047;-74
2022/10/11 08:09:11;;;;;;;3.20;1.40;;;;;;;;;;5127881;27;19919;-74
2022/10/11 08:11:41;;;;;;;1.52;1.42;;;;;;;;;;5128614;27;20047;-74
2022/10/11 08:14:11;;;;;;;4.88;1.70;;;;;;;;;;5128381;27;20051;-74
2022/10/11 08:16:41;;;;;;;3.63;1.10;;;;;;;;;;5128289;27;20414;-74
2022/10/11 08:19:12;;;;;;;1.42;1.33;;;;;;;;;;5128144;27;20525;-72
2022/10/11 08:21:42;;;;;;;1.92;1.55;;;;;;;;;;5128029;27;20043;-71
2022/10/11 08:24:15;;;;;;;6.30;2.05;;;;;;;;;;5127995;27;20055;-73
2022/10/11 08:26:46;;;;;;;2.63;1.95;;;;;;;;;;5128035;27;20509;-71
2022/10/11 08:29:16;;;;;;;3.45;3.00;;;;;;;;;;5127949;27;20031;-71
2022/10/11 08:31:47;;;;;;;6.05;4.22;;;;;;;;;;5127911;27;20050;-74
2022/10/11 08:34:17;;;;;;;5.38;4.35;;;;;;;;;;5128336;27;20047;-71
2022/10/11 08:36:47;;;;;;;;;;;;;;;;;;5128526;27;20047;-73
2022/10/11 08:39:17;;;;;;;6.18;4.15;;;;;;;;;;5127742;27;19926;-72
2022/10/11 08:41:53;;;;;;;7.53;4.30;;;;;;;;;;5128033;27;20043;-74
2022/10/11 08:44:38;;;;;;;6.00;4.00;;;;;;;;;;5127693;27;20039;-76
2022/10/11 08:47:35;;;;;;;9.35;4.78;;;;;;;;;;5127580;27;20043;-74
2022/10/11 08:50:14;;;;;;;7.07;5.20;;;;;;;;;;5127832;27;20047;-71
2022/10/11 08:53:01;;;;;;;6.07;4.22;;;;;;;;;;5128209;27;20094;-74
2022/10/11 08:55:47;;;;;;;6.75;4.72;;;;;;;;;;5127796;27;20043;-72
2022/10/11 08:58:22;;;;;;;8.15;4.43;;;;;;;;;;5128349;27;20054;-73
2022/10/11 09:00:54;;;;;;;7.00;4.07;;;;;;;;;;5127624;27;20039;-72
2022/10/11 09:03:43;;;;;;;5.97;3.83;;;;;;;;;;5127692;27;20493;-72
2022/10/11 09:06:30;;;;;;;5.20;3.60;;;;;;;;;;5127471;27;20047;-73
2022/10/11 09:09:22;;;;;;;6.05;3.08;;;;;;;;;;5125622;27;20085;-71
2022/10/11 09:12:09;;;;;;;3.90;3.50;;;;;;;;;;5127275;27;20047;-71
2022/10/11 09:14:51;;;;;;;3.83;3.42;;;;;;;;;;5126983;27;20051;-72
2022/10/11 09:17:47;;;;;;;7.07;3.72;;;;;;;;;;5126705;27;20557;-73
2022/10/11 09:20:50;;;;;;;7.60;4.05;;;;;;;;;;5127474;27;20043;-73
2022/10/11 09:23:38;;;;;;;7.15;4.70;;;;;;;;;;5127990;27;20043;-74
2022/10/11 09:26:39;;;;;;;12.35;6.03;;;;;;;;;;5127276;28;20057;-73
2022/10/11 09:29:44;;;;;;;5.82;5.28;;;;;;;;;;5127125;28;20047;-73
2022/10/11 09:32:19;;;;;;;5.80;4.55;;;;;;;;;;5127233;28;20043;-74
2022/10/11 09:35:15;;;;;;;9.07;5.25;;;;;;;;;;5127053;28;20047;-73
2022/10/11 09:38:13;;;;;;;8.13;6.20;;;;;;;;;;5120740;28;20071;-75
2022/10/11 09:41:04;;;;;;;7.43;6.20;;;;;;;;;;5103824;27;20062;-75
2022/10/11 09:43:34;;;;;;;10.10;7.18;;;;;;;;;;5127376;28;20493;-75
2022/10/11 09:46:19;;;;;;;10.98;7.50;;;;;;;;;;5129996;27;20035;-73
2022/10/11 09:48:51;;;;;;;12.25;7.65;;;;;;;;;;5129194;27;20043;-77
2022/10/11 09:51:23;;;;;;;9.88;7.20;;;;;;;;;;5131096;27;20073;-78
2022/10/11 09:54:01;;;;;;;12.40;8.82;;;;;;;;;;5130723;27;20047;-77
2022/10/11 09:56:33;;;;;;;14.00;8.77;;;;;;;;;;5130767;27;20039;-74
2022/10/11 09:59:34;;;;;;;20.95;9.30;;;;;;;;;;5130733;27;20043;-74
2022/10/11 10:02:13;;;;;;;30.20;11.00;;;;;;;;;;5130561;27;20051;-72
2022/10/11 10:04:56;;;;;;;30.63;10.93;;;;;;;;;;5130486;27;20394;-76
2022/10/11 10:07:26;;;;;;;;;;;;;;;;;;5129614;27;20524;-75
2022/10/11 10:09:57;;;;;;;27.77;11.20;;;;;;;;;;5131082;27;20048;-71
2022/10/11 10:12:29;;;;;;;24.80;10.88;;;;;;;;;;5130874;27;20039;-73
2022/10/11 10:15:18;;;;;;;32.15;11.88;;;;;;;;;;5130972;27;20066;-74
2022/10/11 10:17:52;;;;;;;23.88;10.85;;;;;;;;;;5129166;27;20046;-73
2022/10/11 10:20:49;;;;;;;19.80;9.27;;;;;;;;;;5130702;27;20047;-74
2022/10/11 10:23:25;;;;;;;19.58;8.82;;;;;;;;;;5130233;27;20535;-76
2022/10/11 10:26:16;;;;;;;15.18;8.57;;;;;;;;;;5130133;27;20046;-75
2022/10/11 10:29:04;;;;;;;15.52;8.95;;;;;;;;;;5130735;27;20090;-71
2022/10/11 10:31:54;;;;;;;18.35;11.55;;;;;;;;;;5130912;27;20497;-72
2022/10/11 10:35:08;;;;;;;14.82;8.82;;;;;;;;;;5130727;27;20520;-73
2022/10/11 10:37:48;;;;;;;15.10;8.20;;;;;;;;;;5130434;27;20399;-76
2022/10/11 10:40:36;;;;;;;17.17;9.40;;;;;;;;;;5130370;27;20043;-75
2022/10/11 10:43:20;;;;;;;14.68;7.88;;;;;;;;;;5130502;27;20054;-74
2022/10/11 10:46:23;;;;;;;17.42;8.85;;;;;;;;;;5130114;27;20047;-72
2022/10/11 10:49:03;;;;;;;16.40;8.40;;;;;;;;;;5130197;27;20434;-72
2022/10/11 10:52:24;;;;;;;15.48;8.52;;;;;;;;;;5130396;27;20070;-74
2022/10/11 10:55:33;;;;;;;16.38;8.60;;;;;;;;;;5129885;27;20502;-75
2022/10/11 10:58:09;;;;;;;15.38;7.80;;;;;;;;;;5085901;28;20043;-75
2022/10/11 11:01:11;;;;;;;11.52;8.52;;;;;;;;;;5086434;28;20056;-73
2022/10/11 11:03:47;;;;;;;13.55;8.90;;;;;;;;;;5119797;27;20051;-72
2022/10/11 11:06:43;;;;;;;16.55;7.72;;;;;;;;;;5129942;27;20512;-72
2022/10/11 11:09:34;;;;;;;14.43;9.20;;;;;;;;;;5129979;27;20078;-74
2022/10/11 11:12:14;;;;;;;15.27;8.80;;;;;;;;;;5129512;27;20035;-74
2022/10/11 11:14:53;;;;;;;12.75;8.80;;;;;;;;;;5129388;27;20627;-76
2022/10/11 11:17:38;;;;;;;12.68;7.93;;;;;;;;;;5129576;27;20043;-74
2022/10/11 11:20:32;;;;;;;16.45;8.35;;;;;;;;;;5129641;27;20062;-75
2022/10/11 11:23:26;;;;;;;15.85;8.63;;;;;;;;;;5130051;27;20043;-74
2022/10/11 11:26:20;;;;;;;13.18;8.15;;;;;;;;;;5127881;27;20058;-76
2022/10/11 11:29:21;;;;;;;12.05;8.32;;;;;;;;;;5129058;27;20057;-73
2022/10/11 11:32:09;;;;;;;13.05;9.00;;;;;;;;;;5128925;27;20046;-73
2022/10/11 11:34:51;;;;;;;18.25;7.93;;;;;;;;;;5129354;27;20133;-72
2022/10/11 11:37:32;;;;;;;;;;;;;;;;;;5129752;27;20050;-77
2022/10/11 11:40:05;;;;;;;;;;;;;;;;;;5129874;27;19930;-77
2022/10/11 11:42:43;;;;;;;21.83;11.45;;;;;;;;;;5129099;27;19926;-75
2022/10/11 11:45:21;;;;;;;12.13;8.57;;;;;;;;;;5129504;27;20039;-75
2022/10/11 11:48:02;;;;;;;15.45;8.23;;;;;;;;;;5128964;27;20046;-74
2022/10/11 11:50:42;;;;;;;16.10;8.80;;;;;;;;;;5129099;27;20054;-76
2022/10/11 11:53:23;;;;;;;14.15;9.70;;;;;;;;;;5127527;27;20047;-72
2022/10/11 11:56:16;;;;;;;14.23;8.68;;;;;;;;;;5128330;27;20058;-76
2022/10/11 11:59:09;;;;;;;14.65;9.70;;;;;;;;;;5123868;27;20066;-75
2022/10/11 12:01:46;;;;;;;13.65;8.70;;;;;;;;;;5127096;27;20054;-77
2022/10/11 12:04:31;;;;;;;14.77;8.75;;;;;;;;;;5129010;27;20039;-74
2022/10/11 12:07:13;;;;;;;16.63;10.25;;;;;;;;;;5128634;27;20520;-74
2022/10/11 12:09:51;;;;;;;15.98;9.65;;;;;;;;;;5128103;27;20391;-79
2022/10/11 12:12:32;;;;;;;14.68;9.20;;;;;;;;;;5128290;27;20576;-72
2022/10/11 12:15:09;;;;;;;17.42;10.43;;;;;;;;;;5129360;27;20047;-74
2022/10/11 12:17:56;;;;;;;14.52;9.52;;;;;;;;;;5129368;27;20046;-76
2022/10/11 12:20:28;;;;;;;15.82;10.35;;;;;;;;;;5128257;27;20047;-72
2022/10/11 12:22:59;;;;;;;15.20;9.25;;;;;;;;;;5128034;27;20043;-78
2022/10/11 12:25:32;;;;;;;26.30;16.67;;;;;;;;;;5128437;27;20405;-80
2022/10/11 12:28:36;;;;;;;15.90;9.68;;;;;;;;;;5128243;27;20047;-75
2022/10/11 12:31:25;;;;;;;14.25;8.52;;;;;;;;;;5128425;27;20039;-73
2022/10/11 12:34:34;;;;;;;39.15;19.15;;;;;;;;;;5127929;27;20211;-74
2022/10/11 12:37:22;;;;;;;19.50;10.05;;;;;;;;;;5129071;27;20536;-77
2022/10/11 12:39:57;;;;;;;13.30;8.45;;;;;;;;;;5127080;27;20054;-75
2022/10/11 12:42:31;;;;;;;13.18;7.95;;;;;;;;;;5127822;27;20043;-77
2022/10/11 12:45:13;;;;;;;15.60;10.23;;;;;;;;;;5127732;27;20501;-76
2022/10/11 12:48:08;;;;;;;19.77;9.52;;;;;;;;;;5127921;27;20051;-75
2022/10/11 12:50:57;;;;;;;12.55;7.47;;;;;;;;;;5128003;27;20397;-76
2022/10/11 12:53:52;;;;;;;12.63;8.73;;;;;;;;;;5127750;27;20047;-72
2022/10/11 12:56:48;;;;;;;13.13;6.97;;;;;;;;;;5126489;27;20043;-74
2022/10/11 12:59:22;;;;;;;11.60;6.50;;;;;;;;;;5127771;27;20047;-74
2022/10/11 13:01:55;;;;;;;9.38;6.75;;;;;;;;;;5127530;27;20061;-73
2022/10/11 13:04:29;;;;;;;15.32;6.15;;;;;;;;;;5127708;27;20047;-74
2022/10/11 13:07:06;;;;;;;11.73;5.68;;;;;;;;;;5127829;27;20039;-73
2022/10/11 13:09:40;;;;;;;7.82;5.72;;;;;;;;;;5127169;27;20063;-73
2022/10/11 13:12:25;;;;;;;11.43;5.97;;;;;;;;;;5126827;27;20035;-72
2022/10/11 13:15:07;;;;;;;7.63;5.47;;;;;;;;;;5127786;27;20047;-73
2022/10/11 13:17:39;;;;;;;8.73;5.15;;;;;;;;;;5127356;27;20516;-76
2022/10/11 13:20:19;;;;;;;20.23;16.52;;;;;;;;;;5126742;27;20054;-74
2022/10/11 13:22:52;;;;;;;8.55;5.47;;;;;;;;;;5127729;27;20042;-75
2022/10/11 13:25:28;;;;;;;10.43;4.88;;;;;;;;;;5127868;28;20100;-73
2022/10/11 13:27:58;;;;;;;;;;;;;;;;;;5127810;28;20161;-74
2022/10/11 13:30:31;;;;;;;7.82;5.35;;;;;;;;;;5127441;28;19931;-72
2022/10/11 13:33:20;;;;;;;19.85;5.93;;;;;;;;;;5126404;28;20070;-73
2022/10/11 13:35:51;;;;;;;7.82;4.90;;;;;;;;;;5127688;28;20051;-73
2022/10/11 13:38:34;;;;;;;10.48;4.97;;;;;;;;;;5127390;28;20039;-76
2022/10/11 13:41:09;;;;;;;9.18;4.47;;;;;;;;;;5127463;28;20490;-75
2022/10/11 13:43:39;;;;;;;7.05;3.53;;;;;;;;;;5127336;28;20047;-75
2022/10/11 13:46:17;;;;;;;6.90;4.72;;;;;;;;;;5127230;28;20050;-76
2022/10/11 13:48:57;;;;;;;4.63;3.75;;;;;;;;;;5127811;28;20044;-74
2022/10/11 13:51:31;;;;;;;8.40;5.40;;;;;;;;;;5127244;28;20062;-77
2022/10/11 13:54:09;;;;;;;9.70;7.75;;;;;;;;;;5126926;28;20039;-73
2022/10/11 13:56:50;;;;;;;7.30;4.70;;;;;;;;;;5127230;28;20600;-78
2022/10/11 13:59:22;;;;;;;5.03;4.07;;;;;;;;;;5126857;28;20048;-74
2022/10/11 14:02:03;;;;;;;9.88;4.32;;;;;;;;;;5127365;28;20502;-77
2022/10/11 14:04:40;;;;;;;4.90;3.50;;;;;;;;;;5126709;27;20055;-73
2022/10/11 14:07:30;;;;;;;8.45;3.83;;;;;;;;;;5126192;28;20541;-74
2022/10/11 14:10:01;;;;;;;8.65;4.05;;;;;;;;;;5127310;28;20054;-76
2022/10/11 14:12:43;;;;;;;4.72;3.63;;;;;;;;;;5128146;28;20054;-73
2022/10/11 14:15:34;;;;;;;5.63;3.42;;;;;;;;;;5127493;28;21070;-76
2022/10/11 14:18:40;;;;;;;6.10;3.33;;;;;;;;;;5127420;28;20058;-77
2022/10/11 14:21:20;;;;;;;;;;;;;;;;;;5127615;28;20051;-76
2022/10/11 14:24:01;;;;;;;11.70;4.00;;;;;;;;;;5126663;27;19923;-77
2022/10/11 14:26:34;;;;;;;7.30;4.32;;;;;;;;;;5126774;28;20051;-76
2022/10/11 14:29:16;;;;;;;4.88;3.10;;;;;;;;;;5126786;28;20405;-77
2022/10/11 14:31:48;;;;;;;6.75;3.80;;;;;;;;;;5128892;27;20046;-75
2022/10/11 14:34:21;;;;;;;19.40;11.50;;;;;;;;;;5130846;27;20043;-80
2022/10/11 14:36:52;;;;;;;9.02;6.00;;;;;;;;;;5131190;27;20047;-77
2022/10/11 14:39:24;;;;;;;6.35;4.40;;;;;;;;;;5130750;27;20050;-76
2022/10/11 14:41:54;;;;;;;8.88;5.97;;;;;;;;;;5130214;27;20697;-78
2022/10/11 14:44:24;;;;;;;6.97;5.15;;;;;;;;;;5130572;27;20066;-76
2022/10/11 14:46:54;;;;;;;7.25;4.88;;;;;;;;;;5129189;27;20043;-75
2022/10/11 14:49:26;;;;;;;6.63;4.63;;;;;;;;;;5130257;27;20055;-76
2022/10/11 14:51:58;;;;;;;6.85;4.53;;;;;;;;;;5130436;27;20043;-74
2022/10/11 14:54:29;;;;;;;6.07;4.50;;;;;;;;;;5128726;27;20077;-75
2022/10/11 14:57:02;;;;;;;6.00;4.22;;;;;;;;;;5130284;27;20406;-76
2022/10/11 14:59:35;;;;;;;6.72;4.82;;;;;;;;;;5129998;27;20047;-77
2022/10/11 15:02:07;;;;;;;8.63;4.63;;;;;;;;;;5130465;27;20043;-74
2022/10/11 15:04:37;;;;;;;6.25;4.60;;;;;;;;;;5129619;27;20058;-75
2022/10/11 15:07:07;;;;;;;8.13;5.40;;;;;;;;;;5130213;27;20628;-78
2022/10/11 15:09:37;;;;;;;7.00;5.32;;;;;;;;;;5129488;27;20054;-76
2022/10/11 15:12:08;;;;;;;7.63;5.28;;;;;;;;;;5128904;27;20341;-78
2022/10/11 15:14:38;;;;;;;12.65;6.95;;;;;;;;;;5129697;27;20517;-74
2022/10/11 15:17:11;;;;;;;10.82;6.38;;;;;;;;;;5128473;27;20058;-75
2022/10/11 15:19:41;;;;;;;8.13;5.95;;;;;;;;;;5128873;27;20906;-77
2022/10/11 15:22:11;;;;;;;7.32;5.05;;;;;;;;;;5129705;27;20440;-77
2022/10/11 15:24:41;;;;;;;7.15;5.05;;;;;;;;;;5129714;27;20043;-79
2022/10/11 15:27:16;;;;;;;7.72;5.18;;;;;;;;;;5130364;27;20074;-76
2022/10/11 15:29:45;;;;;;;6.93;4.93;;;;;;;;;;5128946;27;20039;-78
2022/10/11 15:32:15;;;;;;;7.18;4.70;;;;;;;;;;5129486;27;20047;-75
2022/10/11 15:34:45;;;;;;;9.60;5.93;;;;;;;;;;5129234;27;20058;-75
2022/10/11 15:37:15;;;;;;;7.55;3.83;;;;;;;;;;5128780;27;20043;-75
2022/10/11 15:39:44;;;;;;;5.63;3.72;;;;;;;;;;5128853;27;20498;-74
2022/10/11 15:42:14;;;;;;;5.07;4.03;;;;;;;;;;5128114;27;20547;-75
2022/10/11 15:44:44;;;;;;;5.60;3.65;;;;;;;;;;5128432;27;20588;-75